Time;durP1;ratioP1;P1;durP2;ratioP2;P2;SDS_P1;SDS_P2;PMS_P1;PMS_P2;Temp;Humidity;BMP_temperature;BMP_pressure;BME280_temperature;BME280_humidity;BME280_pressure;Samples;Min_cycle;Max_cycle;Signal;HPM_P1;HPM_P2
2023/12/17 00:01:07;;;;;;;4.20;1.70;;;9.40;99.90;;;9.42;100.00;103320.03;5179404;28;20049;-50
2023/12/17 00:03:40;;;;;;;4.47;1.92;;;9.40;99.90;;;9.42;100.00;103320.94;5216843;28;20092;-51
2023/12/17 00:06:12;;;;;;;4.60;1.88;;;9.40;99.90;;;9.42;100.00;103315.72;5215370;28;20064;-51
2023/12/17 00:08:48;;;;;;;3.63;1.70;;;9.40;99.90;;;9.41;100.00;103319.13;5217921;28;20072;-50
2023/12/17 00:11:20;;;;;;;3.72;1.80;;;9.40;99.90;;;9.40;100.00;103322.53;5213862;28;20386;-51
2023/12/17 00:13:53;;;;;;;4.25;1.85;;;9.40;99.90;;;9.39;100.00;103331.13;5175015;28;20053;-50
2023/12/17 00:16:26;;;;;;;3.30;1.77;;;9.40;99.90;;;9.38;100.00;103318.88;5183827;28;20044;-50
2023/12/17 00:18:58;;;;;;;4.43;1.95;;;9.40;99.90;;;9.38;100.00;103324.06;5208563;28;20049;-50
2023/12/17 00:21:30;;;;;;;4.07;1.65;;;9.40;99.90;;;9.38;100.00;103317.97;5184047;28;20535;-52
2023/12/17 00:24:05;;;;;;;4.72;1.83;;;9.40;99.90;;;9.37;100.00;103330.06;5183110;28;20049;-51
2023/12/17 00:26:37;;;;;;;3.38;1.67;;;9.40;99.90;;;9.34;100.00;103309.03;5177613;28;20056;-51
2023/12/17 00:29:10;;;;;;;4.75;2.00;;;9.40;99.90;;;9.35;100.00;103308.22;5200180;28;20050;-50
2023/12/17 00:31:42;;;;;;;3.92;1.70;;;9.40;99.90;;;9.36;100.00;103303.94;5200273;28;20045;-50
2023/12/17 00:34:14;;;;;;;6.10;2.10;;;9.40;99.90;;;9.35;100.00;103313.44;5206875;28;20053;-50
2023/12/17 00:36:47;;;;;;;5.03;2.05;;;9.40;99.90;;;9.33;100.00;103328.03;5183228;28;20505;-51
2023/12/17 00:39:20;;;;;;;4.60;1.83;;;9.30;99.90;;;9.30;100.00;103338.19;5200069;28;20528;-51
2023/12/17 00:41:53;;;;;;;3.75;1.90;;;9.30;99.90;;;9.28;100.00;103331.94;5183624;28;20057;-50
2023/12/17 00:44:25;;;;;;;3.03;1.52;;;9.30;99.90;;;9.28;100.00;103329.34;5214888;28;20049;-51
2023/12/17 00:46:58;;;;;;;3.90;1.60;;;9.30;99.90;;;9.30;100.00;103317.34;5199461;28;20048;-51
2023/12/17 00:49:33;;;;;;;4.07;1.70;;;9.30;99.90;;;9.31;100.00;103315.66;5183321;28;20079;-51
2023/12/17 00:52:06;;;;;;;5.00;1.90;;;9.30;99.90;;;9.31;100.00;103326.06;5183320;28;20524;-49
2023/12/17 00:54:40;;;;;;;3.20;1.70;;;9.30;99.90;;;9.30;100.00;103340.78;5203316;28;20050;-51
2023/12/17 00:57:12;;;;;;;2.95;1.48;;;9.30;99.90;;;9.32;100.00;103333.09;5183577;28;20044;-51
2023/12/17 00:59:44;;;;;;;3.35;1.80;;;9.30;99.90;;;9.33;100.00;103341.06;5214089;28;20049;-51
2023/12/17 01:02:17;;;;;;;5.47;1.83;;;9.30;99.90;;;9.31;100.00;103340.00;5199014;28;20053;-50
2023/12/17 01:04:49;;;;;;;6.05;2.13;;;9.30;99.90;;;9.29;100.00;103338.97;5200211;28;20049;-50
2023/12/17 01:07:25;;;;;;;3.30;1.92;;;9.30;99.90;;;9.25;100.00;103336.91;5182797;28;20587;-51
2023/12/17 01:09:58;;;;;;;4.57;2.00;;;9.30;99.90;;;9.22;100.00;103342.78;5182690;28;20543;-52
2023/12/17 01:12:31;;;;;;;4.07;1.80;;;9.30;99.90;;;9.24;100.00;103350.69;5184791;28;20052;-50
2023/12/17 01:15:03;;;;;;;4.05;1.70;;;9.30;99.90;;;9.25;100.00;103348.22;5179070;28;20053;-51
2023/12/17 01:17:36;;;;;;;2.63;1.52;;;9.30;99.90;;;9.25;100.00;103343.00;5196548;28;20041;-50
2023/12/17 01:20:09;;;;;;;3.78;1.77;;;9.30;99.90;;;9.26;100.00;103338.75;5199487;28;20046;-50
2023/12/17 01:22:42;;;;;;;4.53;1.80;;;9.30;99.90;;;9.30;100.00;103347.69;5182589;28;20531;-52
2023/12/17 01:25:15;;;;;;;2.85;1.45;;;9.30;99.90;;;9.30;100.00;103346.00;5192140;28;20056;-50
2023/12/17 01:27:48;;;;;;;2.30;1.15;;;9.30;99.90;;;9.32;100.00;103349.63;5204569;28;20046;-50
2023/12/17 01:30:20;;;;;;;2.30;1.60;;;9.30;99.90;;;9.32;100.00;103339.19;5178514;28;20064;-51
2023/12/17 01:32:54;;;;;;;2.28;1.23;;;9.30;99.90;;;9.33;100.00;103341.06;5181199;28;20140;-51
2023/12/17 01:35:26;;;;;;;3.83;1.40;;;9.30;99.90;;;9.32;100.00;103336.59;5193756;28;20057;-50
2023/12/17 01:37:58;;;;;;;2.97;1.85;;;9.30;99.90;;;9.32;100.00;103339.19;5213697;28;20077;-51
2023/12/17 01:40:33;;;;;;;5.32;1.42;;;9.30;99.90;;;9.32;100.00;103331.41;5198313;28;20508;-50
2023/12/17 01:43:07;;;;;;;5.00;1.70;;;9.30;99.90;;;9.32;100.00;103334.00;5180979;28;20053;-51
2023/12/17 01:45:40;;;;;;;3.50;1.63;;;9.30;99.90;;;9.31;100.00;103340.00;5207744;28;20409;-50
2023/12/17 01:48:13;;;;;;;5.68;2.00;;;9.30;99.90;;;9.32;100.00;103335.69;5196346;28;20057;-50
2023/12/17 01:50:46;;;;;;;9.32;2.55;;;9.30;99.90;;;9.32;100.00;103328.78;5205642;28;20404;-51
2023/12/17 01:53:22;;;;;;;4.78;1.90;;;9.30;99.90;;;9.32;100.00;103317.47;5180224;28;20517;-51
2023/12/17 01:55:56;;;;;;;5.68;2.33;;;9.30;99.90;;;9.34;100.00;103315.91;5179329;28;20046;-51
2023/12/17 01:58:29;;;;;;;6.63;2.63;;;9.30;99.90;;;9.33;100.00;103317.63;5208378;28;20129;-50
2023/12/17 02:01:03;;;;;;;6.57;2.33;;;9.30;99.90;;;9.32;100.00;103318.38;5201414;28;20061;-51
2023/12/17 02:03:38;;;;;;;4.00;2.20;;;9.30;99.90;;;9.30;100.00;103319.97;5181623;28;20124;-52
2023/12/17 02:06:11;;;;;;;5.70;2.50;;;9.30;99.90;;;9.32;100.00;103323.59;5199218;28;20050;-50
2023/12/17 02:08:43;;;;;;;8.10;2.58;;;9.30;99.90;;;9.34;100.00;103322.03;5218424;28;20045;-51
2023/12/17 02:11:17;;;;;;;7.32;2.70;;;9.30;99.90;;;9.33;100.00;103322.81;5181744;28;20054;-49
2023/12/17 02:13:49;;;;;;;9.15;2.25;;;9.30;99.90;;;9.30;100.00;103304.34;5211254;28;20041;-51
2023/12/17 02:16:22;;;;;;;6.28;2.50;;;9.30;99.90;;;9.29;100.00;103302.53;5182473;28;20050;-50
2023/12/17 02:18:54;;;;;;;7.88;2.55;;;9.30;99.90;;;9.28;100.00;103300.72;5200702;28;20049;-50
2023/12/17 02:21:27;;;;;;;7.80;2.45;;;9.30;99.90;;;9.27;100.00;103293.69;5202783;28;20080;-52
2023/12/17 02:24:01;;;;;;;8.02;2.35;;;9.30;99.90;;;9.26;100.00;103299.69;5199836;28;20045;-52
2023/12/17 02:26:33;;;;;;;10.70;2.75;;;9.30;99.90;;;9.29;100.00;103302.53;5216726;28;20054;-50
2023/12/17 02:29:05;;;;;;;9.77;3.28;;;9.30;99.90;;;9.29;100.00;103302.53;5201994;28;20045;-53
2023/12/17 02:31:38;;;;;;;7.57;2.83;;;9.30;99.90;;;9.26;100.00;103304.91;5208970;28;20259;-51
2023/12/17 02:34:10;;;;;;;7.38;3.38;;;9.30;99.90;;;9.25;100.00;103296.16;5184296;28;20500;-50
2023/12/17 02:36:42;;;;;;;9.02;3.05;;;9.30;99.90;;;9.23;100.00;103295.13;5183905;28;20037;-53
2023/12/17 02:39:16;;;;;;;6.95;2.35;;;9.20;99.90;;;9.19;100.00;103290.50;5201001;28;20061;-51
2023/12/17 02:41:49;;;;;;;6.70;2.75;;;9.20;99.90;;;9.18;100.00;103306.88;5199646;28;20046;-51
2023/12/17 02:44:21;;;;;;;6.15;2.53;;;9.20;99.90;;;9.19;100.00;103310.38;5199062;28;20060;-51
2023/12/17 02:46:54;;;;;;;6.20;2.65;;;9.20;99.90;;;9.18;100.00;103303.34;5217777;28;20057;-50
2023/12/17 02:49:27;;;;;;;5.68;2.17;;;9.20;99.90;;;9.18;100.00;103292.94;5185232;28;20191;-51
2023/12/17 02:51:59;;;;;;;9.57;2.65;;;9.30;99.90;;;9.20;100.00;103291.41;5210433;28;20037;-51
2023/12/17 02:54:33;;;;;;;6.95;3.08;;;9.20;99.90;;;9.20;100.00;103301.81;5201751;28;20053;-50
2023/12/17 02:57:05;;;;;;;7.53;2.55;;;9.20;99.90;;;9.20;100.00;103307.91;5205317;28;20402;-51
2023/12/17 02:59:40;;;;;;;6.50;2.83;;;9.20;99.90;;;9.20;100.00;103309.63;5198891;28;20065;-50
2023/12/17 03:02:13;;;;;;;4.90;2.38;;;9.20;99.90;;;9.21;100.00;103295.81;5178551;28;20064;-50
2023/12/17 03:04:45;;;;;;;5.07;2.13;;;9.20;99.90;;;9.20;100.00;103300.13;5182422;28;20042;-50
2023/12/17 03:07:18;;;;;;;6.72;2.50;;;9.30;99.90;;;9.23;100.00;103302.03;5184051;28;20046;-52
2023/12/17 03:09:54;;;;;;;5.40;2.25;;;9.20;99.90;;;9.22;100.00;103295.03;5186077;28;20045;-50
2023/12/17 03:12:26;;;;;;;4.53;2.08;;;9.20;99.90;;;9.22;100.00;103295.03;5200989;28;20520;-51
2023/12/17 03:14:59;;;;;;;4.78;2.03;;;9.20;99.90;;;9.22;100.00;103289.81;5203033;28;20053;-52
2023/12/17 03:17:35;;;;;;;5.90;2.00;;;9.30;99.90;;;9.21;100.00;103281.09;5211589;28;20706;-51
2023/12/17 03:20:10;;;;;;;4.65;2.40;;;9.20;99.90;;;9.22;100.00;103280.31;5182365;28;20049;-53
2023/12/17 03:22:42;;;;;;;4.88;2.60;;;9.30;99.90;;;9.21;100.00;103272.38;5192634;28;20082;-51
2023/12/17 03:25:16;;;;;;;6.53;2.47;;;9.20;99.90;;;9.20;100.00;103270.56;5202762;28;20069;-51
2023/12/17 03:27:48;;;;;;;5.68;2.10;;;9.20;99.90;;;9.21;100.00;103277.59;5184091;28;20038;-50
2023/12/17 03:30:21;;;;;;;5.28;2.10;;;9.20;99.90;;;9.20;100.00;103271.47;5179349;28;20425;-50
2023/12/17 03:32:53;;;;;;;7.78;2.72;;;9.20;99.90;;;9.18;100.00;103277.31;5178375;28;20054;-50
2023/12/17 03:35:25;;;;;;;5.68;2.15;;;9.20;99.90;;;9.18;100.00;103266.91;5179488;28;20046;-50
2023/12/17 03:37:58;;;;;;;8.15;2.13;;;9.20;99.90;;;9.16;100.00;103265.91;5185827;28;20041;-50
2023/12/17 03:40:32;;;;;;;6.78;2.92;;;9.20;99.90;;;9.16;100.00;103263.28;5181632;28;20053;-50
2023/12/17 03:43:04;;;;;;;5.50;2.25;;;9.20;99.90;;;9.16;100.00;103253.78;5183600;28;20060;-49
2023/12/17 03:45:37;;;;;;;6.07;2.63;;;9.10;99.90;;;9.18;100.00;103248.69;5211819;28;20052;-51
2023/12/17 03:48:09;;;;;;;5.38;2.33;;;9.20;99.90;;;9.17;100.00;103245.19;5177588;28;20412;-50
2023/12/17 03:50:42;;;;;;;6.20;2.25;;;9.20;99.90;;;9.15;100.00;103235.47;5192071;28;20061;-49
2023/12/17 03:53:14;;;;;;;5.72;2.15;;;9.20;99.90;;;9.15;100.00;103232.84;5210154;28;20061;-49
2023/12/17 03:55:48;;;;;;;5.63;2.72;;;9.20;99.90;;;9.15;100.00;103235.47;5182420;28;20050;-49
2023/12/17 03:58:20;;;;;;;5.43;2.30;;;9.20;99.90;;;9.14;100.00;103241.47;5180260;28;20044;-49
2023/12/17 04:00:53;;;;;;;4.35;2.03;;;9.10;99.90;;;9.13;100.00;103237.94;5181191;28;20079;-50
2023/12/17 04:03:25;;;;;;;4.38;2.20;;;9.20;99.90;;;9.13;100.00;103237.94;5180680;28;20400;-52
2023/12/17 04:06:00;;;;;;;6.68;2.63;;;9.10;99.90;;;9.15;100.00;103243.28;5182872;28;20033;-51
2023/12/17 04:08:32;;;;;;;4.50;2.10;;;9.10;99.90;;;9.12;100.00;103243.00;5200354;28;20068;-51
2023/12/17 04:11:06;;;;;;;5.28;2.25;;;9.10;99.90;;;9.11;100.00;103243.81;5178677;28;20046;-49
2023/12/17 04:13:42;;;;;;;5.32;2.35;;;9.10;99.90;;;9.12;100.00;103245.59;5196273;28;20049;-50
2023/12/17 04:16:14;;;;;;;4.60;2.00;;;9.20;99.90;;;9.13;100.00;103237.03;5177270;28;20058;-50
2023/12/17 04:18:47;;;;;;;3.78;1.77;;;9.10;99.90;;;9.12;100.00;103237.81;5183045;28;20045;-50
2023/12/17 04:21:19;;;;;;;5.05;1.98;;;9.10;99.90;;;9.11;100.00;103229.09;5178384;28;20050;-50
2023/12/17 04:23:54;;;;;;;4.82;2.03;;;9.10;99.90;;;9.11;100.00;103222.97;5181791;28;20053;-50
2023/12/17 04:26:28;;;;;;;;;;;9.10;99.90;;;9.11;100.00;103222.97;5180194;28;20517;-51
2023/12/17 04:29:00;;;;;;;3.78;1.75;;;9.10;99.90;;;9.10;100.00;103226.38;5180272;28;19921;-51
2023/12/17 04:31:32;;;;;;;3.50;1.80;;;9.10;99.90;;;9.09;100.00;103228.06;5199968;28;20428;-53
2023/12/17 04:34:05;;;;;;;6.72;2.00;;;9.10;99.90;;;9.09;100.00;103227.16;5196682;28;20132;-51
2023/12/17 04:36:37;;;;;;;3.90;2.30;;;9.10;99.90;;;9.09;100.00;103227.16;5199636;28;20046;-50
2023/12/17 04:39:10;;;;;;;3.60;1.55;;;9.10;99.90;;;9.09;100.00;103229.78;5178800;28;20045;-50
2023/12/17 04:41:44;;;;;;;3.10;1.55;;;9.10;99.90;;;9.10;100.00;103229.88;5196942;28;20049;-52
2023/12/17 04:44:16;;;;;;;4.15;1.83;;;9.10;99.90;;;9.10;100.00;103237.69;5183487;28;20052;-51
2023/12/17 04:46:49;;;;;;;4.50;1.80;;;9.10;99.90;;;9.11;100.00;103239.50;5178704;28;20041;-52
2023/12/17 04:49:21;;;;;;;3.72;1.52;;;9.10;99.90;;;9.11;100.00;103233.38;5178426;28;20054;-51
2023/12/17 04:51:57;;;;;;;2.25;1.60;;;9.10;99.90;;;9.12;100.00;103237.81;5180532;28;20173;-50
2023/12/17 04:54:29;;;;;;;3.28;1.75;;;9.20;99.90;;;9.13;100.00;103242.25;5179251;28;20049;-52
2023/12/17 04:57:04;;;;;;;4.90;1.90;;;9.20;99.90;;;9.12;100.00;103245.59;5179557;28;20417;-51
2023/12/17 04:59:36;;;;;;;2.63;1.75;;;9.10;99.90;;;9.09;100.00;103232.38;5200189;28;20050;-51
2023/12/17 05:02:08;;;;;;;4.47;1.92;;;9.10;99.90;;;9.08;100.00;103238.38;5180162;28;20056;-51
2023/12/17 05:04:41;;;;;;;3.03;1.60;;;9.10;99.90;;;9.09;100.00;103235.88;5198549;28;20394;-50
2023/12/17 05:07:13;;;;;;;3.42;1.83;;;9.10;99.90;;;9.08;100.00;103239.28;5182119;28;20061;-50
2023/12/17 05:09:45;;;;;;;3.90;1.77;;;9.10;99.90;;;9.07;100.00;103231.34;5196694;28;20052;-50
2023/12/17 05:12:19;;;;;;;3.35;1.92;;;9.10;99.90;;;9.07;100.00;103236.56;5183504;28;20155;-51
2023/12/17 05:14:52;;;;;;;5.15;2.33;;;9.10;99.90;;;9.06;100.00;103226.91;5182566;28;20050;-51
2023/12/17 05:17:24;;;;;;;6.82;2.35;;;9.10;99.90;;;9.06;100.00;103224.31;5195858;28;20042;-51
2023/12/17 05:19:56;;;;;;;6.07;2.20;;;9.00;99.90;;;9.05;100.00;103232.91;5197561;28;20056;-52
2023/12/17 05:22:29;;;;;;;5.78;2.72;;;9.10;99.90;;;9.06;100.00;103238.22;5198365;28;20064;-50
2023/12/17 05:25:02;;;;;;;5.95;2.70;;;9.10;99.90;;;9.04;100.00;103233.69;5181014;28;20356;-50
2023/12/17 05:27:37;;;;;;;6.97;2.80;;;9.00;99.90;;;9.02;100.00;103230.97;5195783;28;20523;-50
2023/12/17 05:30:11;;;;;;;6.53;2.70;;;9.00;99.90;;;8.99;100.00;103238.53;5178392;28;20053;-50
2023/12/17 05:32:44;;;;;;;6.63;2.90;;;9.00;99.90;;;8.97;100.00;103221.88;5209417;28;20060;-51
2023/12/17 05:35:16;;;;;;;5.63;2.83;;;9.00;99.90;;;9.01;100.00;103220.47;5187280;28;20077;-50
2023/12/17 05:37:52;;;;;;;7.50;3.05;;;9.00;99.90;;;9.00;100.00;103221.22;5184448;28;20048;-51
2023/12/17 05:40:24;;;;;;;7.45;2.80;;;9.00;99.90;;;9.01;100.00;103220.47;5210685;28;20046;-51
2023/12/17 05:42:58;;;;;;;7.63;2.75;;;9.00;99.90;;;8.98;100.00;103215.88;5181932;28;20057;-49
2023/12/17 05:45:32;;;;;;;6.10;2.63;;;9.00;99.90;;;8.98;100.00;103224.59;5185403;28;20049;-50
2023/12/17 05:48:04;;;;;;;4.43;2.30;;;9.00;99.90;;;8.96;100.00;103213.19;5185386;28;20069;-51
2023/12/17 05:50:37;;;;;;;5.10;2.33;;;9.00;99.90;;;8.97;100.00;103215.00;5200028;28;20058;-50
2023/12/17 05:53:09;;;;;;;5.25;2.38;;;9.00;99.90;;;8.98;100.00;103202.88;5199375;28;20563;-51
2023/12/17 05:55:42;;;;;;;5.72;2.55;;;9.00;99.90;;;8.99;100.00;103207.28;5195117;28;20045;-52
2023/12/17 05:58:16;;;;;;;4.20;2.33;;;9.00;99.90;;;8.97;100.00;103206.28;5183556;28;20041;-50
2023/12/17 06:00:48;;;;;;;6.55;2.58;;;9.00;99.90;;;8.97;100.00;103212.38;5199640;28;20045;-50
2023/12/17 06:03:21;;;;;;;7.88;3.00;;;9.00;99.90;;;8.97;100.00;103203.69;5182040;28;20544;-52
2023/12/17 06:05:53;;;;;;;8.20;2.95;;;9.00;99.90;;;8.97;100.00;103196.78;5213045;28;20061;-49
2023/12/17 06:08:25;;;;;;;6.80;2.58;;;9.00;99.90;;;8.96;100.00;103197.56;5209407;28;20049;-49
2023/12/17 06:10:58;;;;;;;4.88;2.33;;;8.90;99.90;;;8.96;100.00;103200.16;5184923;28;20052;-51
2023/12/17 06:13:33;;;;;;;8.18;3.25;;;9.00;99.90;;;8.95;100.00;103203.56;5200978;28;20056;-50
2023/12/17 06:16:06;;;;;;;6.13;2.65;;;9.00;99.90;;;8.94;100.00;103204.34;5182039;28;20049;-49
2023/12/17 06:18:40;;;;;;;6.03;2.45;;;9.00;99.90;;;8.93;100.00;103197.34;5201173;28;20054;-49
2023/12/17 06:21:22;;;;;;;5.75;2.55;;;9.00;99.90;;;8.93;100.00;103202.53;5181016;28;20041;-51
2023/12/17 06:23:57;;;;;;;5.22;2.38;;;9.00;99.90;;;8.93;100.00;103202.53;5206757;28;20069;-51
2023/12/17 06:26:29;;;;;;;7.07;2.63;;;9.00;99.90;;;8.89;100.00;103205.66;5183453;28;20057;-50
2023/12/17 06:29:03;;;;;;;6.03;2.50;;;9.00;99.90;;;8.91;100.00;103203.19;5183335;28;20041;-50
2023/12/17 06:31:36;;;;;;;8.07;2.92;;;8.90;99.90;;;8.88;100.00;103209.06;5184996;28;20057;-50
2023/12/17 06:34:11;;;;;;;9.40;3.03;;;9.00;99.90;;;8.88;100.00;103214.28;5184884;28;20128;-51
2023/12/17 06:36:44;;;;;;;6.45;2.72;;;9.00;99.90;;;8.89;100.00;103204.78;5200630;28;20144;-51
2023/12/17 06:39:16;;;;;;;7.22;2.63;;;9.00;99.90;;;8.88;100.00;103209.06;5187484;28;20391;-51
2023/12/17 06:41:52;;;;;;;4.75;2.22;;;8.90;99.90;;;8.88;100.00;103216.88;5199076;28;20053;-50
2023/12/17 06:44:25;;;;;;;6.57;2.75;;;8.90;99.90;;;8.86;100.00;103218.41;5180937;28;20424;-52
2023/12/17 06:46:58;;;;;;;5.57;2.50;;;8.90;99.90;;;8.86;100.00;103214.91;5174858;28;20048;-52
2023/12/17 06:49:31;;;;;;;5.55;2.08;;;8.90;99.90;;;8.87;100.00;103215.06;5201364;28;20412;-51
2023/12/17 06:52:03;;;;;;;4.45;1.98;;;8.90;99.90;;;8.88;100.00;103215.97;5181162;28;20408;-51
2023/12/17 06:54:36;;;;;;;6.40;2.15;;;8.90;99.90;;;8.88;100.00;103216.88;5201887;28;20076;-53
2023/12/17 06:57:08;;;;;;;5.70;2.30;;;8.90;99.90;;;8.88;100.00;103213.38;5180358;28;20049;-51
2023/12/17 06:59:42;;;;;;;8.57;2.63;;;8.90;99.90;;;8.87;100.00;103217.66;5180626;28;20045;-51
2023/12/17 07:02:14;;;;;;;6.90;2.53;;;8.90;99.90;;;8.86;100.00;103217.50;5178053;28;20054;-50
2023/12/17 07:04:46;;;;;;;5.25;2.08;;;8.90;99.90;;;8.82;100.00;103208.56;5200317;28;20049;-50
2023/12/17 07:07:19;;;;;;;5.60;2.20;;;8.90;99.90;;;8.81;100.00;103222.38;5180108;28;20060;-50
2023/12/17 07:09:54;;;;;;;5.97;2.67;;;8.90;99.90;;;8.81;100.00;103217.16;5184204;28;20046;-50
2023/12/17 07:12:26;;;;;;;5.05;2.25;;;8.90;99.90;;;8.81;100.00;103219.78;5182105;28;20115;-51
2023/12/17 07:15:01;;;;;;;4.72;2.53;;;8.90;99.90;;;8.82;100.00;103223.28;5198058;28;20548;-50
2023/12/17 07:17:33;;;;;;;4.25;2.08;;;8.90;99.90;;;8.80;100.00;103220.56;5200775;28;20056;-51
2023/12/17 07:20:10;;;;;;;4.65;2.30;;;8.90;99.90;;;8.79;100.00;103221.31;5176640;28;20053;-51
2023/12/17 07:22:42;;;;;;;5.53;2.45;;;8.90;99.90;;;8.79;100.00;103213.50;5196319;28;20057;-50
2023/12/17 07:25:15;;;;;;;5.15;2.35;;;8.90;99.90;;;8.80;100.00;103214.41;5205322;28;20056;-51
2023/12/17 07:27:47;;;;;;;4.50;1.80;;;8.90;99.90;;;8.79;100.00;103213.50;5199001;28;20041;-51
2023/12/17 07:30:24;;;;;;;4.57;1.83;;;8.80;99.90;;;8.77;100.00;103214.19;5179249;28;20061;-51
2023/12/17 07:32:56;;;;;;;4.57;1.85;;;8.80;99.90;;;8.76;100.00;103217.56;5183280;28;20046;-50
2023/12/17 07:35:29;;;;;;;3.90;2.20;;;8.80;99.90;;;8.75;100.00;103216.69;5182666;28;20390;-51
2023/12/17 07:38:01;;;;;;;3.42;1.63;;;8.80;99.90;;;8.77;100.00;103220.28;5198579;28;20040;-48
2023/12/17 07:40:33;;;;;;;3.97;1.67;;;8.80;99.90;;;8.74;100.00;103214.88;5214456;28;20087;-47
2023/12/17 07:43:06;;;;;;;4.40;1.70;;;8.80;99.90;;;8.74;100.00;103220.06;5177491;28;20108;-47
2023/12/17 07:45:40;;;;;;;4.13;2.10;;;8.80;99.90;;;8.72;100.00;103220.72;5199789;28;20056;-48
2023/12/17 07:48:12;;;;;;;4.80;2.10;;;8.80;99.90;;;8.69;100.00;103217.09;5183434;28;20038;-47
2023/12/17 07:50:45;;;;;;;4.85;1.67;;;8.80;99.90;;;8.70;100.00;103203.28;5181088;28;20054;-48
2023/12/17 07:53:17;;;;;;;2.65;1.63;;;8.80;99.90;;;8.70;100.00;103212.78;5182793;28;20064;-48
2023/12/17 07:55:50;;;;;;;3.65;2.10;;;8.80;99.90;;;8.72;100.00;103219.00;5180931;28;20053;-48
2023/12/17 07:58:23;;;;;;;4.43;1.52;;;8.80;99.90;;;8.73;100.00;103207.81;5183151;28;20045;-48
2023/12/17 08:00:56;;;;;;;3.28;1.58;;;8.80;99.90;;;8.74;100.00;103204.47;5182803;28;20408;-48
2023/12/17 08:03:29;;;;;;;3.10;1.65;;;8.80;99.90;;;8.74;100.00;103204.47;5199181;28;20228;-47
2023/12/17 08:06:02;;;;;;;2.22;1.48;;;8.80;99.90;;;8.73;100.00;103202.63;5210265;28;20572;-48
2023/12/17 08:08:34;;;;;;;2.50;1.70;;;8.80;99.90;;;8.73;100.00;103199.09;5200212;28;20045;-47
2023/12/17 08:11:11;;;;;;;3.90;1.55;;;8.80;99.90;;;8.74;100.00;103199.25;5178845;28;20050;-47
2023/12/17 08:13:45;;;;;;;3.28;1.48;;;8.80;99.90;;;8.75;100.00;103201.06;5198337;28;20531;-48
2023/12/17 08:16:18;;;;;;;3.15;1.55;;;8.80;99.90;;;8.75;100.00;103206.28;5181025;28;20058;-48
2023/12/17 08:18:51;;;;;;;2.67;1.67;;;8.80;99.90;;;8.77;100.00;103206.38;5182392;28;20684;-48
2023/12/17 08:21:23;;;;;;;3.13;1.65;;;8.80;99.90;;;8.79;100.00;103205.72;5178272;28;20054;-48
2023/12/17 08:23:56;;;;;;;3.10;1.60;;;8.80;99.90;;;8.83;100.00;103210.38;5180014;28;20041;-50
2023/12/17 08:26:28;;;;;;;3.63;1.85;;;8.90;99.90;;;8.83;100.00;103212.97;5181187;28;20058;-47
2023/12/17 08:29:00;;;;;;;3.40;1.88;;;8.90;99.90;;;8.93;100.00;103199.94;5181158;28;20041;-49
2023/12/17 08:31:35;;;;;;;3.53;1.77;;;9.00;99.90;;;9.02;100.00;103206.66;5182428;28;20065;-49
2023/12/17 08:34:10;;;;;;;3.08;1.60;;;9.00;99.90;;;9.04;100.00;103200.78;5204803;28;20210;-48
2023/12/17 08:36:44;;;;;;;4.45;2.03;;;9.10;99.90;;;9.01;100.00;103205.75;5194489;28;20065;-48
2023/12/17 08:39:16;;;;;;;4.70;2.20;;;9.10;99.90;;;8.99;100.00;103202.09;5178626;28;20103;-49
2023/12/17 08:41:49;;;;;;;3.88;2.00;;;9.00;99.90;;;8.98;100.00;103192.47;5182378;28;20428;-48
2023/12/17 08:44:23;;;;;;;3.72;2.03;;;9.00;99.90;;;8.96;100.00;103192.38;5211958;28;20049;-48
2023/12/17 08:46:56;;;;;;;4.10;1.90;;;9.00;99.90;;;8.97;100.00;103204.59;5180350;28;20046;-49
2023/12/17 08:49:29;;;;;;;5.80;2.35;;;9.00;99.90;;;8.97;100.00;103208.88;5200855;28;20061;-49
2023/12/17 08:52:01;;;;;;;4.70;1.95;;;9.00;99.90;;;9.00;100.00;103213.41;5179364;28;20046;-48
2023/12/17 08:54:33;;;;;;;4.68;2.30;;;9.00;99.90;;;8.97;100.00;103201.97;5199083;28;20057;-49
2023/12/17 08:57:06;;;;;;;4.43;2.10;;;9.00;99.90;;;8.97;100.00;103203.69;5207136;28;20064;-49
2023/12/17 08:59:43;;;;;;;5.25;1.98;;;9.00;99.90;;;8.95;100.00;103189.66;5196882;28;20046;-49
2023/12/17 09:02:20;;;;;;;3.67;2.13;;;9.00;99.90;;;8.98;100.00;103195.06;5212406;28;20054;-49
2023/12/17 09:04:53;;;;;;;3.75;2.00;;;9.00;99.90;;;8.96;100.00;103202.78;5179877;28;20056;-48
2023/12/17 09:07:26;;;;;;;3.63;1.83;;;9.00;99.90;;;8.96;100.00;103194.97;5206649;28;20136;-48
2023/12/17 09:09:58;;;;;;;4.72;2.60;;;9.00;99.90;;;8.97;100.00;103203.69;5181413;28;20508;-48
2023/12/17 09:12:30;;;;;;;4.85;2.13;;;9.00;99.90;;;8.97;100.00;103204.59;5199182;28;20052;-48
2023/12/17 09:15:04;;;;;;;5.43;3.40;;;9.00;99.90;;;8.99;100.00;103204.69;5178315;28;20060;-49
2023/12/17 09:17:37;;;;;;;3.83;2.20;;;9.00;99.90;;;8.98;100.00;103209.00;5197785;28;20054;-50
2023/12/17 09:20:10;;;;;;;5.63;2.40;;;9.00;99.90;;;8.96;100.00;103212.28;5173573;28;20082;-49
2023/12/17 09:22:43;;;;;;;3.58;2.25;;;9.00;99.90;;;8.92;100.00;103215.41;5182872;28;20045;-48
2023/12/17 09:25:15;;;;;;;3.80;2.13;;;9.00;99.90;;;8.91;100.00;103211.91;5182343;28;20152;-48
2023/12/17 09:27:47;;;;;;;3.67;2.05;;;9.00;99.90;;;8.90;100.00;103206.56;5206200;28;20045;-49
2023/12/17 09:30:23;;;;;;;3.50;2.00;;;8.90;99.90;;;8.91;100.00;103216.19;5206250;28;20057;-48
2023/12/17 09:32:57;;;;;;;2.97;1.83;;;9.00;99.90;;;8.92;100.00;103216.31;5179103;28;20045;-50
2023/12/17 09:35:29;;;;;;;3.35;2.10;;;9.00;99.90;;;8.90;100.00;103223.09;5198092;28;21371;-49
2023/12/17 09:38:02;;;;;;;4.00;2.03;;;9.00;99.90;;;8.89;100.00;103228.19;5179026;28;20049;-48
2023/12/17 09:40:34;;;;;;;3.13;1.83;;;8.90;99.90;;;8.80;100.00;103236.16;5180830;28;20053;-49
2023/12/17 09:43:08;;;;;;;3.55;2.30;;;8.90;99.90;;;8.79;100.00;103239.53;5208770;28;20053;-49
2023/12/17 09:45:44;;;;;;;3.38;1.77;;;8.90;99.90;;;8.82;100.00;103239.78;5174899;28;20049;-49
2023/12/17 09:48:23;;;;;;;3.42;2.00;;;8.90;99.90;;;8.84;100.00;103238.22;5211926;28;20149;-48
2023/12/17 09:50:56;;;;;;;4.20;1.90;;;8.90;99.90;;;8.87;100.00;103233.28;5174632;28;20112;-50
2023/12/17 09:53:31;;;;;;;3.25;1.90;;;8.90;99.90;;;8.84;100.00;103225.19;5174655;28;20057;-49
2023/12/17 09:56:03;;;;;;;;;;;8.90;99.90;;;8.86;100.00;103221.03;5197330;28;20057;-49
2023/12/17 09:58:35;;;;;;;4.60;2.42;;;8.90;99.90;;;8.92;100.00;103223.22;5198990;28;19921;-48
2023/12/17 10:01:08;;;;;;;4.63;2.47;;;8.90;99.90;;;8.95;100.00;103218.25;5180155;28;20070;-48
2023/12/17 10:03:42;;;;;;;4.47;2.10;;;9.00;99.90;;;8.92;100.00;103224.13;5191211;28;20049;-50
2023/12/17 10:06:14;;;;;;;2.97;2.00;;;9.00;99.90;;;8.92;100.00;103218.00;5198000;28;20513;-50
2023/12/17 10:08:46;;;;;;;3.70;2.13;;;9.00;99.90;;;8.92;100.00;103216.31;5177616;28;20053;-48
2023/12/17 10:11:19;;;;;;;4.60;2.28;;;9.00;99.90;;;8.93;100.00;103212.00;5177607;28;20417;-49
2023/12/17 10:13:52;;;;;;;4.82;2.60;;;9.00;99.90;;;8.93;100.00;103209.41;5178164;28;20042;-48
2023/12/17 10:16:25;;;;;;;6.30;2.28;;;9.00;99.90;;;8.94;100.00;103208.66;5177304;28;20052;-48
2023/12/17 10:18:58;;;;;;;4.15;2.20;;;9.00;99.90;;;8.98;100.00;103203.78;5181669;28;20050;-50
2023/12/17 10:21:31;;;;;;;3.58;2.22;;;9.00;99.90;;;9.10;100.00;103201.25;5202146;28;20061;-49
2023/12/17 10:24:03;;;;;;;4.13;1.83;;;9.10;99.90;;;9.24;100.00;103198.03;5182978;28;20056;-47
2023/12/17 10:26:43;;;;;;;4.13;2.08;;;9.20;99.90;;;9.40;100.00;103194.94;5202578;28;20072;-49
2023/12/17 10:29:18;;;;;;;3.20;2.30;;;9.30;99.90;;;9.57;100.00;103200.53;5199791;28;20061;-48
2023/12/17 10:31:52;;;;;;;3.28;2.03;;;9.50;99.90;;;9.66;100.00;103193.44;5215736;28;20077;-49
2023/12/17 10:34:30;;;;;;;3.75;2.00;;;9.60;99.90;;;9.87;100.00;103192.47;5214167;28;20056;-48
2023/12/17 10:37:03;;;;;;;3.92;2.22;;;9.70;99.90;;;10.11;100.00;103187.28;5182950;28;20053;-49
2023/12/17 10:39:36;;;;;;;3.63;2.17;;;9.90;99.90;;;10.28;100.00;103181.63;5184818;28;20045;-48
2023/12/17 10:42:10;;;;;;;4.15;1.98;;;10.10;99.90;;;10.39;100.00;103169.41;5181652;28;20053;-48
2023/12/17 10:44:44;;;;;;;4.00;2.55;;;10.20;99.90;;;10.41;100.00;103176.53;5196199;28;20068;-49